Time;durP1;ratioP1;P1;durP2;ratioP2;P2;SDS_P1;SDS_P2;PMS_P1;PMS_P2;Temp;Humidity;BMP_temperature;BMP_pressure;BME280_temperature;BME280_humidity;BME280_pressure;Samples;Min_cycle;Max_cycle;Signal;HPM_P1;HPM_P2
2021/04/15 00:02:22;;;;;;;13.00;8.00;;;;;;;-1.24;84.57;96235.72;4991342;28;20038;-69
2021/04/15 00:04:48;;;;;;;11.68;7.55;;;;;;;-1.18;84.45;96238.56;4990039;28;20046;-69
2021/04/15 00:07:13;;;;;;;14.00;8.60;;;;;;;-1.28;85.22;96233.66;4990760;28;20046;-69
2021/04/15 00:09:39;;;;;;;11.80;7.63;;;;;;;-1.13;84.27;96231.09;5005844;28;20034;-69
2021/04/15 00:12:05;;;;;;;12.57;7.70;;;;;;;-1.10;84.71;96236.72;4984259;28;20045;-69
2021/04/15 00:14:31;;;;;;;10.90;7.35;;;;;;;-1.20;84.55;96233.59;4983595;28;20053;-69
2021/04/15 00:16:57;;;;;;;13.45;7.80;;;;;;;-1.05;84.45;96233.59;4983211;28;20500;-68
2021/04/15 00:19:22;;;;;;;11.85;7.50;;;;;;;-0.92;84.32;96228.63;4990201;28;20516;-69
2021/04/15 00:21:49;;;;;;;12.23;7.57;;;;;;;-0.86;83.86;96229.69;5006686;28;20042;-69
2021/04/15 00:24:15;;;;;;;11.32;7.72;;;;;;;-0.94;83.83;96227.97;4987002;28;20074;-69
2021/04/15 00:26:42;;;;;;;13.10;8.55;;;;;;;-0.96;84.91;96227.38;4990629;28;20046;-68
2021/04/15 00:29:07;;;;;;;11.07;7.78;;;;;;;-1.09;84.55;96227.97;4990784;28;20047;-67
2021/04/15 00:31:33;;;;;;;13.63;8.30;;;;;;;-1.07;84.98;96223.44;4989982;28;20519;-69
2021/04/15 00:36:34;;;;;;;14.82;9.00;;;;;;;-0.75;84.30;96223.25;5324786;23;20054;-69
2021/04/15 00:39:00;;;;;;;13.65;8.40;;;;;;;-0.77;84.73;96225.22;4982180;28;20092;-69
2021/04/15 00:41:25;;;;;;;11.85;7.75;;;;;;;-0.77;83.96;96222.63;4989528;28;20066;-69
2021/04/15 00:43:51;;;;;;;12.88;8.43;;;;;;;-0.90;84.53;96231.03;4990627;28;20042;-69
2021/04/15 00:46:22;;;;;;;13.55;8.63;;;;;;;-0.83;84.59;96224.16;4984500;28;20411;-69
2021/04/15 00:48:48;;;;;;;16.17;8.90;;;;;;;-0.75;85.28;96228.41;4985689;28;20089;-68
2021/04/15 00:51:39;;;;;;;13.98;8.90;;;;;;;-0.78;85.12;96218.44;4990325;28;20464;-68
2021/04/15 00:54:14;;;;;;;13.38;7.90;;;;;;;-0.87;85.47;96215.94;4984829;28;20050;-69
2021/04/15 00:56:40;;;;;;;15.75;9.18;;;;;;;-0.91;85.79;96219.84;4989777;28;20503;-69
2021/04/15 00:59:07;;;;;;;11.82;8.07;;;;;;;-0.76;85.38;96213.88;4990644;28;20046;-69
2021/04/15 01:01:33;;;;;;;16.23;7.95;;;;;;;-0.62;85.18;96212.25;4990915;28;20050;-69
2021/04/15 01:03:58;;;;;;;11.73;7.57;;;;;;;-0.64;83.94;96215.03;4984211;28;20112;-68
2021/04/15 01:06:24;;;;;;;12.75;8.50;;;;;;;-0.59;84.12;96217.88;4989241;28;20511;-68
2021/04/15 01:08:51;;;;;;;16.33;8.50;;;;;;;-0.42;84.21;96212.47;4990063;28;20042;-68
2021/04/15 01:12:10;;;;;;;14.35;8.35;;;;;;;-0.45;83.75;96207.69;4987834;28;20042;-69
2021/04/15 01:15:27;;;;;;;12.82;8.10;;;;;;;-0.54;84.78;96205.19;4945824;28;20056;-69
2021/04/15 01:17:58;;;;;;;16.35;9.05;;;;;;;-0.62;84.49;96210.47;4923547;29;20640;-69
2021/04/15 01:20:42;;;;;;;14.30;9.73;;;;;;;-0.47;83.95;96205.28;4976669;28;20066;-69
2021/04/15 01:23:17;;;;;;;16.08;9.32;;;;;;;-0.59;84.70;96211.91;4984732;28;20050;-68
2021/04/15 01:26:21;;;;;;;15.02;10.38;;;;;;;-0.44;84.85;96209.28;4987882;28;20061;-69
2021/04/15 01:29:08;;;;;;;15.98;9.93;;;;;;;-0.45;82.92;96212.84;4986318;28;20484;-69
2021/04/15 01:32:00;;;;;;;15.57;9.68;;;;;;;-0.42;83.32;96202.16;4989585;28;20077;-69
2021/04/15 01:34:44;;;;;;;12.85;8.23;;;;;;;-0.39;83.19;96196.59;4985824;28;20050;-69
2021/04/15 01:37:38;;;;;;;12.73;8.60;;;;;;;-0.47;83.17;96199.31;4987793;28;20050;-69
2021/04/15 01:40:19;;;;;;;14.02;8.50;;;;;;;-0.60;82.52;96200.75;4977111;28;20141;-69
2021/04/15 01:43:08;;;;;;;13.30;7.18;;;;;;;-0.73;82.96;96200.63;4992789;28;20052;-69
2021/04/15 01:45:33;;;;;;;16.52;9.02;;;;;;;-0.63;83.46;96201.13;4990440;28;20042;-69
2021/04/15 01:48:07;;;;;;;13.98;8.38;;;;;;;-0.91;83.87;96193.22;4990685;28;20465;-69
2021/04/15 01:50:42;;;;;;;15.10;8.85;;;;;;;-0.94;83.33;96199.56;4993781;28;20045;-69
2021/04/15 01:53:12;;;;;;;16.23;8.48;;;;;;;-0.93;83.13;96190.81;4986755;28;20050;-69
2021/04/15 01:55:43;;;;;;;13.48;8.38;;;;;;;-0.89;83.53;96192.06;4989691;28;20047;-68
2021/04/15 01:58:29;;;;;;;10.73;7.47;;;;;;;-0.94;83.58;96186.63;4986847;28;20057;-69
2021/04/15 02:01:06;;;;;;;11.38;7.55;;;;;;;-1.22;83.52;96187.28;4993008;28;20070;-68
2021/04/15 02:03:36;;;;;;;11.65;8.13;;;;;;;-1.27;84.25;96189.59;4984884;28;20109;-68
2021/04/15 02:06:08;;;;;;;13.32;8.07;;;;;;;-1.25;83.70;96192.81;4987183;28;20042;-70
2021/04/15 02:08:41;;;;;;;11.32;7.25;;;;;;;-1.24;84.00;96194.38;4990359;28;20074;-69
2021/04/15 02:11:16;;;;;;;15.32;8.32;;;;;;;-1.40;83.78;96195.34;4993225;28;20077;-69
2021/04/15 02:13:45;;;;;;;13.77;8.57;;;;;;;-1.47;84.53;96183.34;4993989;28;20046;-69
2021/04/15 02:16:16;;;;;;;13.80;7.93;;;;;;;-1.33;84.45;96185.13;4987838;28;20432;-68
2021/04/15 02:18:53;;;;;;;12.48;8.05;;;;;;;-1.35;84.41;96181.94;4993234;28;20097;-69
2021/04/15 02:21:25;;;;;;;12.60;7.97;;;;;;;-1.31;84.34;96188.31;4993517;28;20042;-69
2021/04/15 02:23:59;;;;;;;13.82;8.05;;;;;;;-1.77;85.08;96183.28;4992851;28;20058;-68
2021/04/15 02:26:36;;;;;;;14.05;8.68;;;;;;;-1.95;85.41;96192.16;4980363;28;20054;-69
2021/04/15 02:29:22;;;;;;;15.48;7.85;;;;;;;-1.87;85.59;96187.91;4992195;28;20050;-69
2021/04/15 02:32:03;;;;;;;13.80;8.63;;;;;;;-1.88;85.18;96184.53;4992515;28;20057;-69
2021/04/15 02:34:44;;;;;;;15.00;9.07;;;;;;;-2.01;85.91;96187.69;4988647;28;20053;-69
2021/04/15 02:37:21;;;;;;;14.20;9.13;;;;;;;-2.03;86.51;96192.19;4988472;28;20085;-69
2021/04/15 02:39:51;;;;;;;13.68;8.02;;;;;;;-2.03;85.98;96194.78;4992292;28;20046;-69
2021/04/15 02:42:24;;;;;;;13.02;8.13;;;;;;;-1.68;85.38;96191.75;4992592;28;20511;-69
2021/04/15 02:44:55;;;;;;;14.65;8.88;;;;;;;-2.08;85.47;96186.78;4991021;28;20057;-69
2021/04/15 02:47:33;;;;;;;13.50;8.27;;;;;;;-2.19;85.56;96197.50;4985831;28;20080;-70
2021/04/15 02:50:01;;;;;;;16.75;8.77;;;;;;;-2.27;85.82;96194.00;4992281;28;20046;-69
2021/04/15 02:52:31;;;;;;;12.95;8.80;;;;;;;-2.49;86.18;96195.56;4988004;28;20085;-69
2021/04/15 02:55:03;;;;;;;13.68;8.13;;;;;;;-2.26;86.95;96202.53;4990397;28;20112;-69
2021/04/15 02:57:45;;;;;;;15.07;8.27;;;;;;;-2.24;85.70;96202.34;4988523;28;20463;-68
2021/04/15 03:00:16;;;;;;;13.40;7.95;;;;;;;-2.35;85.90;96201.78;4990890;28;20046;-70
2021/04/15 03:02:50;;;;;;;16.30;9.18;;;;;;;-2.13;85.53;96189.84;4986517;28;20567;-69
2021/04/15 03:05:21;;;;;;;13.18;8.85;;;;;;;-2.36;86.18;96200.16;4990781;28;20046;-69
2021/04/15 03:07:48;;;;;;;13.63;8.55;;;;;;;-2.16;86.25;96194.56;4989485;28;20476;-68
2021/04/15 03:10:19;;;;;;;13.63;8.00;;;;;;;-2.40;85.50;96191.16;4991647;28;20045;-69
2021/04/15 03:12:54;;;;;;;15.25;8.40;;;;;;;-2.33;85.13;96194.69;4993184;28;20038;-69
2021/04/15 03:15:25;;;;;;;15.65;8.18;;;;;;;-2.24;85.16;96192.03;4991123;28;20043;-69
2021/04/15 03:17:54;;;;;;;14.48;8.75;;;;;;;-2.43;85.52;96188.94;4989385;28;20073;-69
2021/04/15 03:20:26;;;;;;;16.42;8.23;;;;;;;-2.20;85.39;96183.78;4990957;28;20126;-68
2021/04/15 03:23:09;;;;;;;14.02;8.43;;;;;;;-2.36;85.37;96183.91;4992380;28;20096;-69
2021/04/15 03:25:35;;;;;;;16.88;9.70;;;;;;;-2.56;86.37;96183.53;4984927;28;20049;-69
2021/04/15 03:28:16;;;;;;;12.10;7.53;;;;;;;-2.48;85.94;96181.72;4985463;28;20042;-68
2021/04/15 03:30:55;;;;;;;13.63;8.45;;;;;;;-2.48;86.21;96189.44;4985369;28;20057;-69
2021/04/15 03:33:26;;;;;;;14.10;8.82;;;;;;;-2.69;85.97;96190.03;4991226;28;20069;-69
2021/04/15 03:36:07;;;;;;;16.30;9.18;;;;;;;-2.83;86.65;96194.16;4989315;28;20101;-69
2021/04/15 03:38:40;;;;;;;18.13;9.80;;;;;;;-2.79;86.65;96189.44;4988860;28;20046;-69
2021/04/15 03:41:12;;;;;;;12.82;7.57;;;;;;;-2.65;86.74;96195.66;4991648;28;20046;-69
2021/04/15 03:43:45;;;;;;;13.77;8.57;;;;;;;-2.81;85.81;96197.34;4979176;28;20062;-69
2021/04/15 03:46:24;;;;;;;17.63;8.52;;;;;;;-2.77;86.21;96192.69;4985217;28;20102;-68
2021/04/15 03:48:54;;;;;;;15.25;9.35;;;;;;;-2.81;85.77;96193.97;4985669;28;20377;-68
2021/04/15 03:51:23;;;;;;;14.60;7.78;;;;;;;-2.77;85.99;96197.81;4990725;28;20041;-69
2021/04/15 03:53:57;;;;;;;16.67;9.18;;;;;;;-2.83;85.83;96198.47;4990505;28;20038;-68
2021/04/15 03:56:37;;;;;;;13.25;8.45;;;;;;;-2.65;86.33;96188.72;4991114;28;20057;-68
2021/04/15 03:59:07;;;;;;;13.63;8.10;;;;;;;-2.62;84.69;96185.03;4991313;28;20685;-69
2021/04/15 04:01:40;;;;;;;14.63;8.70;;;;;;;-2.67;85.51;96193.25;4990507;28;20038;-69
2021/04/15 04:04:16;;;;;;;15.48;8.32;;;;;;;-2.93;85.96;96192.72;4990612;28;20137;-69
2021/04/15 04:06:43;;;;;;;17.58;8.55;;;;;;;-3.04;85.94;96202.44;4988256;28;20061;-69
2021/04/15 04:09:16;;;;;;;13.95;9.07;;;;;;;-2.73;85.30;96199.09;4987398;28;20108;-69
2021/04/15 04:11:46;;;;;;;23.23;8.30;;;;;;;-2.94;85.22;96201.41;4990149;28;20054;-69
2021/04/15 04:14:37;;;;;;;12.88;7.68;;;;;;;-2.84;85.09;96196.91;4987235;28;20050;-69
2021/04/15 04:17:14;;;;;;;13.63;7.90;;;;;;;-2.83;85.31;96198.47;4986219;28;20050;-69
2021/04/15 04:19:54;;;;;;;16.63;9.27;;;;;;;-3.04;85.87;96197.28;4991269;28;20133;-69
2021/04/15 04:22:31;;;;;;;13.65;8.18;;;;;;;-2.86;84.97;96206.56;4990039;28;20046;-69
2021/04/15 04:25:02;;;;;;;13.38;7.70;;;;;;;-2.85;84.59;96203.00;4988047;28;20038;-68
2021/04/15 04:27:35;;;;;;;16.17;8.43;;;;;;;-2.78;85.31;96201.38;4990594;28;20495;-69
2021/04/15 04:30:15;;;;;;;14.43;8.07;;;;;;;-2.90;85.37;96205.28;4991188;28;20435;-69
2021/04/15 04:32:43;;;;;;;13.52;8.73;;;;;;;-2.87;85.37;96192.09;4988423;28;20521;-69
2021/04/15 04:35:15;;;;;;;14.45;8.43;;;;;;;-2.94;85.35;96204.00;4990684;28;20117;-68
2021/04/15 04:37:44;;;;;;;13.75;8.73;;;;;;;-2.94;85.27;96196.28;4989780;28;20050;-69
2021/04/15 04:40:25;;;;;;;15.30;8.25;;;;;;;-2.84;85.01;96202.06;4990836;28;20046;-68
2021/04/15 04:42:59;;;;;;;13.25;7.97;;;;;;;-2.79;85.37;96205.72;4990882;28;20069;-68
2021/04/15 04:45:24;;;;;;;15.60;8.60;;;;;;;-2.74;85.07;96207.78;4982839;28;20060;-68
2021/04/15 04:47:58;;;;;;;15.20;8.23;;;;;;;-2.67;84.42;96206.16;4990675;28;20042;-69
2021/04/15 04:50:24;;;;;;;14.77;7.97;;;;;;;-2.77;85.03;96202.97;4990731;28;20043;-69
2021/04/15 04:52:58;;;;;;;15.70;8.32;;;;;;;-2.78;84.88;96206.53;4989256;28;20420;-69
2021/04/15 04:55:32;;;;;;;18.20;8.90;;;;;;;-2.78;85.13;96216.81;4986320;28;20349;-69
2021/04/15 04:57:58;;;;;;;18.42;8.77;;;;;;;-2.67;84.74;96213.88;4990232;28;20088;-69
2021/04/15 05:00:25;;;;;;;13.65;8.07;;;;;;;-2.67;84.67;96221.59;4988774;28;20514;-68
2021/04/15 05:02:53;;;;;;;15.68;9.02;;;;;;;-2.49;84.18;96228.28;4990000;28;20112;-69
2021/04/15 05:05:29;;;;;;;13.63;8.07;;;;;;;-2.41;84.08;96217.94;4990100;28;20045;-69
2021/04/15 05:08:03;;;;;;;14.07;8.20;;;;;;;-2.33;83.88;96230.78;4984216;28;20042;-69
2021/04/15 05:10:31;;;;;;;15.50;8.10;;;;;;;-2.31;84.46;96228.81;4990764;28;20046;-69
2021/04/15 05:13:06;;;;;;;12.30;7.90;;;;;;;-2.24;84.21;96228.13;4989988;28;20419;-69
2021/04/15 05:15:32;;;;;;;13.30;7.07;;;;;;;-2.07;83.82;96229.63;4989162;28;20093;-69
2021/04/15 05:17:58;;;;;;;13.75;7.70;;;;;;;-2.11;83.94;96223.25;4993832;28;20045;-68
2021/04/15 05:20:26;;;;;;;15.27;8.13;;;;;;;-2.05;85.08;96227.69;4994588;28;20042;-69
2021/04/15 05:23:04;;;;;;;14.82;7.63;;;;;;;-2.02;84.44;96224.78;4993912;28;20046;-69
2021/04/15 05:25:45;;;;;;;12.52;7.60;;;;;;;-2.08;84.28;96228.03;4990671;28;20038;-69
2021/04/15 05:28:15;;;;;;;14.55;7.88;;;;;;;-1.85;84.29;96227.22;4987003;28;20042;-69
2021/04/15 05:30:46;;;;;;;13.57;7.43;;;;;;;-1.80;83.39;96230.09;4995070;28;20050;-69
2021/04/15 05:33:16;;;;;;;14.35;7.57;;;;;;;-1.73;83.62;96231.00;4986678;28;20069;-69
2021/04/15 05:35:46;;;;;;;19.63;7.93;;;;;;;-1.74;84.12;96224.22;4993674;28;20046;-69
2021/04/15 05:38:13;;;;;;;16.52;7.45;;;;;;;-1.59;84.04;96227.66;4991173;28;20043;-69
2021/04/15 05:40:39;;;;;;;13.20;7.88;;;;;;;-1.60;84.07;96218.28;4994967;28;20050;-69
2021/04/15 05:43:14;;;;;;;15.18;7.22;;;;;;;-1.52;83.71;96221.78;4994016;28;20092;-69
2021/04/15 05:45:41;;;;;;;16.83;7.85;;;;;;;-1.51;84.12;96220.81;4990041;28;20066;-69
2021/04/15 05:48:13;;;;;;;14.68;6.90;;;;;;;-1.45;83.83;96222.69;4994019;28;20459;-69
2021/04/15 05:50:41;;;;;;;14.07;7.32;;;;;;;-1.37;83.87;96229.56;4994016;28;20035;-68
2021/04/15 05:53:10;;;;;;;13.98;6.70;;;;;;;-1.38;83.41;96228.75;4993475;28;20047;-69
2021/04/15 05:55:56;;;;;;;14.02;7.45;;;;;;;-1.12;82.06;96227.53;4992556;28;20042;-69
2021/04/15 05:58:27;;;;;;;10.73;6.22;;;;;;;-1.10;82.24;96225.59;4993667;28;20046;-69
2021/04/15 06:00:59;;;;;;;12.32;6.55;;;;;;;-0.96;83.06;96232.53;4991897;28;20038;-69
2021/04/15 06:03:57;;;;;;;11.80;6.65;;;;;;;-0.95;82.70;96234.16;4986941;28;20093;-68
2021/04/15 06:06:28;;;;;;;12.18;6.75;;;;;;;-0.80;83.64;96225.59;4987210;28;20109;-69
2021/04/15 06:08:55;;;;;;;13.23;6.53;;;;;;;-0.75;82.94;96228.41;4986657;28;20042;-69
2021/04/15 06:11:35;;;;;;;13.00;6.55;;;;;;;-0.71;81.76;96224.50;4993659;28;20042;-69
2021/04/15 06:14:15;;;;;;;13.25;6.20;;;;;;;-0.57;78.32;96226.25;4993668;28;20049;-68
2021/04/15 06:16:57;;;;;;;12.07;6.25;;;;;;;-0.44;79.52;96230.78;4990708;28;20042;-69
2021/04/15 06:19:23;;;;;;;11.43;6.00;;;;;;;-0.47;78.70;96230.34;4992823;28;20051;-70
2021/04/15 06:22:06;;;;;;;18.52;6.28;;;;;;;-0.23;75.23;96227.44;4993180;28;20046;-67
2021/04/15 06:24:31;;;;;;;13.48;6.30;;;;;;;-0.15;75.97;96233.47;4992174;28;20050;-67
2021/04/15 06:27:05;;;;;;;11.25;6.45;;;;;;;-0.14;76.91;96235.06;4990167;28;20042;-67
2021/04/15 06:29:56;;;;;;;13.57;6.90;;;;;;;-0.11;75.38;96234.72;4993080;28;20404;-67
2021/04/15 06:32:31;;;;;;;15.20;7.15;;;;;;;-0.06;75.61;96232.34;4990897;28;20161;-66
2021/04/15 06:34:57;;;;;;;15.27;6.85;;;;;;;0.10;75.36;96242.47;4991158;28;20054;-67
2021/04/15 06:37:36;;;;;;;13.52;6.50;;;;;;;0.16;76.27;96240.94;4991643;28;20415;-67
2021/04/15 06:40:21;;;;;;;12.75;6.85;;;;;;;0.24;74.64;96240.00;4992326;28;20423;-71
2021/04/15 06:43:08;;;;;;;11.07;6.43;;;;;;;0.32;72.57;96242.47;4992232;28;20059;-71
2021/04/15 06:45:52;;;;;;;11.23;6.43;;;;;;;0.38;71.02;96244.31;4991024;28;20049;-71
2021/04/15 06:48:36;;;;;;;10.80;6.75;;;;;;;0.48;71.34;96242.19;4991650;28;20049;-71
2021/04/15 06:51:27;;;;;;;10.68;5.75;;;;;;;0.63;71.07;96246.47;4989703;28;20329;-71
2021/04/15 06:54:08;;;;;;;10.35;6.30;;;;;;;0.88;70.05;96251.22;4989900;28;20054;-72
2021/04/15 06:57:11;;;;;;;14.32;6.22;;;;;;;1.04;68.99;96248.34;4989811;28;20589;-70
2021/04/15 06:59:57;;;;;;;11.68;7.20;;;;;;;0.82;69.27;96245.00;4990618;28;20057;-71
2021/04/15 07:02:32;;;;;;;15.10;7.18;;;;;;;0.92;71.75;96244.69;4991709;28;20060;-71
2021/04/15 07:05:25;;;;;;;15.27;6.75;;;;;;;1.02;68.26;96247.72;5007266;28;20097;-71
2021/04/15 07:07:58;;;;;;;11.93;6.70;;;;;;;1.12;68.75;96256.00;4978153;28;20055;-71
2021/04/15 07:10:23;;;;;;;12.80;6.60;;;;;;;1.05;67.18;96247.38;4992637;28;20066;-71
2021/04/15 07:13:23;;;;;;;10.52;6.18;;;;;;;0.99;65.80;96250.72;4989897;28;20042;-71
2021/04/15 07:16:00;;;;;;;10.15;5.78;;;;;;;1.02;65.81;96251.16;4991280;28;20213;-71
2021/04/15 07:18:35;;;;;;;17.27;6.55;;;;;;;1.05;66.21;96244.78;4986564;28;20066;-71
2021/04/15 07:21:00;;;;;;;;;;;;;;;1.14;67.60;96254.00;4991808;28;20412;-71
2021/04/15 07:23:52;;;;;;;11.80;6.35;;;;;;;1.11;65.85;96254.38;4986256;28;20071;-70
2021/04/15 07:26:28;;;;;;;11.63;6.22;;;;;;;1.25;65.84;96264.81;4989539;28;20451;-71
2021/04/15 07:29:13;;;;;;;14.65;6.60;;;;;;;1.10;66.28;96262.34;4987497;28;20042;-71
2021/04/15 07:31:59;;;;;;;12.07;7.00;;;;;;;1.09;67.31;96258.94;4987786;28;20045;-70
2021/04/15 07:34:44;;;;;;;16.52;7.18;;;;;;;1.35;67.47;96265.25;4992082;28;20122;-71
2021/04/15 07:37:27;;;;;;;11.75;6.78;;;;;;;1.31;67.02;96261.47;4982237;28;20055;-70
2021/04/15 07:40:18;;;;;;;12.48;6.75;;;;;;;1.33;66.89;96267.25;4990390;28;20042;-70
2021/04/15 07:43:23;;;;;;;14.73;6.50;;;;;;;1.41;65.29;96272.28;4984319;28;20104;-71
2021/04/15 07:46:14;;;;;;;12.82;7.18;;;;;;;1.17;64.56;96269.16;4983999;28;20045;-70
2021/04/15 07:49:17;;;;;;;13.70;6.55;;;;;;;1.30;65.33;96270.25;4991100;28;20309;-71
2021/04/15 07:51:53;;;;;;;10.75;6.28;;;;;;;1.32;65.13;96268.25;4985510;28;20468;-71
2021/04/15 07:54:35;;;;;;;10.52;6.45;;;;;;;1.43;63.14;96278.06;4991638;28;20054;-71
2021/04/15 07:57:29;;;;;;;9.93;5.38;;;;;;;1.66;65.04;96266.59;4991056;28;20085;-71
2021/04/15 08:00:16;;;;;;;12.60;6.35;;;;;;;1.47;63.17;96274.13;4990532;28;20181;-70
2021/04/15 08:03:03;;;;;;;12.93;6.60;;;;;;;1.39;62.37;96276.84;4988728;28;20042;-71
2021/04/15 08:05:34;;;;;;;12.90;6.63;;;;;;;1.52;63.90;96271.75;4990704;28;20574;-71
2021/04/15 08:08:14;;;;;;;10.93;6.30;;;;;;;1.44;65.45;96284.88;4983824;28;20050;-73
2021/04/15 08:10:52;;;;;;;12.43;7.00;;;;;;;1.71;65.82;96284.97;4991530;28;20030;-71
2021/04/15 08:13:40;;;;;;;13.10;6.80;;;;;;;1.65;64.22;96277.97;4985016;28;20437;-71
2021/04/15 08:16:47;;;;;;;13.82;7.50;;;;;;;1.71;64.24;96279.78;4987701;28;20482;-71
2021/04/15 08:19:59;;;;;;;14.18;6.60;;;;;;;1.75;63.17;96280.22;4908999;29;20534;-71
2021/04/15 08:23:14;;;;;;;14.20;6.95;;;;;;;2.06;64.48;96272.72;4986160;28;20053;-70
2021/04/15 08:26:10;;;;;;;14.30;7.35;;;;;;;2.08;63.84;96275.09;4983755;28;20471;-70
2021/04/15 08:28:49;;;;;;;15.95;8.00;;;;;;;1.82;64.00;96279.22;4989454;28;20049;-70
2021/04/15 08:31:24;;;;;;;10.63;6.78;;;;;;;1.83;66.75;96283.44;4989969;28;20042;-71
2021/04/15 08:33:56;;;;;;;12.63;6.45;;;;;;;2.01;63.48;96274.28;4988986;28;20043;-72
2021/04/15 08:36:57;;;;;;;14.25;6.85;;;;;;;2.13;63.06;96283.13;4986851;28;20069;-71
2021/04/15 08:39:32;;;;;;;12.45;6.38;;;;;;;2.30;66.20;96277.53;4988925;28;20346;-71
2021/04/15 08:42:09;;;;;;;14.10;6.30;;;;;;;2.36;61.63;96271.59;4989401;28;20081;-70
2021/04/15 08:44:54;;;;;;;15.52;7.03;;;;;;;2.48;60.40;96269.97;4988558;28;20125;-71
2021/04/15 08:47:57;;;;;;;10.88;6.15;;;;;;;2.52;60.01;96275.59;4990054;28;20042;-70
2021/04/15 08:50:57;;;;;;;12.98;6.55;;;;;;;2.48;58.14;96272.56;4989111;28;20042;-71
2021/04/15 08:53:41;;;;;;;9.68;6.47;;;;;;;2.49;60.72;96266.38;4988585;28;20137;-69
2021/04/15 08:56:14;;;;;;;12.18;5.95;;;;;;;2.57;61.02;96263.59;4989656;28;20062;-71
2021/04/15 08:58:45;;;;;;;11.43;6.07;;;;;;;2.77;55.96;96267.97;4989697;28;20046;-70
2021/04/15 09:01:20;;;;;;;10.00;5.68;;;;;;;2.66;56.64;96265.97;4987540;28;20066;-70
2021/04/15 09:03:55;;;;;;;11.10;5.72;;;;;;;2.49;54.74;96266.38;4988327;28;20066;-71
2021/04/15 09:06:27;;;;;;;13.82;6.45;;;;;;;2.50;56.51;96261.97;4988065;28;20050;-70
2021/04/15 09:09:04;;;;;;;9.90;5.93;;;;;;;2.50;57.79;96267.16;4987448;28;20042;-71
2021/04/15 09:11:44;;;;;;;11.57;6.55;;;;;;;2.77;58.80;96257.56;4987420;28;20081;-70
2021/04/15 09:14:39;;;;;;;10.90;5.82;;;;;;;3.07;57.26;96262.34;4988472;28;20411;-71
2021/04/15 09:17:12;;;;;;;7.03;5.15;;;;;;;3.06;52.25;96255.53;4986915;28;20061;-72
2021/04/15 09:19:41;;;;;;;10.90;6.20;;;;;;;3.38;55.53;96247.88;4987987;28;20066;-73
2021/04/15 09:22:19;;;;;;;9.70;5.35;;;;;;;3.45;54.56;96251.25;4987341;28;20058;-71
2021/04/15 09:25:04;;;;;;;10.35;5.38;;;;;;;3.68;49.61;96248.16;4983746;28;20065;-71
2021/04/15 09:27:43;;;;;;;10.10;5.00;;;;;;;4.12;48.95;96248.31;4990198;28;20439;-72
2021/04/15 09:30:09;;;;;;;7.97;4.80;;;;;;;3.85;47.92;96253.69;4986684;28;20502;-70
2021/04/15 09:33:16;;;;;;;10.15;5.00;;;;;;;3.73;48.63;96252.75;4994699;28;20034;-71
2021/04/15 09:36:34;;;;;;;8.55;3.53;;;;;;;3.26;45.89;96253.72;4978124;28;20046;-71
2021/04/15 09:39:23;;;;;;;7.32;4.05;;;;;;;3.26;47.59;96243.31;4935107;28;20055;-71
2021/04/15 09:42:24;;;;;;;7.97;5.03;;;;;;;3.37;50.42;96251.47;4987365;28;20058;-70
2021/04/15 09:44:58;;;;;;;11.23;4.88;;;;;;;3.20;50.01;96249.31;4986874;28;20038;-71
2021/04/15 09:47:32;;;;;;;7.18;5.38;;;;;;;3.11;49.29;96247.94;4991519;28;20093;-72
2021/04/15 09:50:10;;;;;;;11.27;5.27;;;;;;;3.04;50.71;96253.16;4985975;28;20046;-71
2021/04/15 09:53:13;;;;;;;11.38;5.82;;;;;;;3.00;50.54;96251.16;4984740;28;20520;-70
2021/04/15 09:56:16;;;;;;;7.65;4.68;;;;;;;2.83;47.86;96256.78;4989799;28;20045;-70
2021/04/15 09:59:08;;;;;;;10.90;6.00;;;;;;;2.77;52.29;96252.38;4985484;28;20414;-71
2021/04/15 10:01:41;;;;;;;8.88;5.97;;;;;;;2.76;54.42;96250.81;4979881;28;20080;-72
2021/04/15 10:04:19;;;;;;;9.00;5.22;;;;;;;2.78;49.32;96256.59;4990146;28;20515;-70
2021/04/15 10:06:54;;;;;;;8.63;4.88;;;;;;;2.91;50.78;96251.38;4989109;28;20053;-71
2021/04/15 10:09:30;;;;;;;10.75;6.15;;;;;;;3.28;52.24;96249.09;4997079;28;20037;-71
2021/04/15 10:12:17;;;;;;;10.95;5.72;;;;;;;3.14;50.62;96250.13;4992330;28;20053;-70
2021/04/15 10:14:49;;;;;;;8.90;5.22;;;;;;;3.17;50.59;96241.13;4988945;28;20105;-71
2021/04/15 10:17:21;;;;;;;8.27;4.57;;;;;;;2.98;51.71;96247.97;4989642;28;20499;-71
2021/04/15 10:19:55;;;;;;;8.35;4.18;;;;;;;3.14;48.53;96237.13;4993728;28;20518;-70
2021/04/15 10:22:39;;;;;;;11.50;4.40;;;;;;;3.19;48.27;96239.94;4986914;28;20034;-71
2021/04/15 10:25:13;;;;;;;8.38;5.32;;;;;;;2.80;50.44;96236.38;4989863;28;20088;-71
2021/04/15 10:27:59;;;;;;;7.07;5.07;;;;;;;3.08;51.44;96240.56;4996379;28;20042;-70
2021/04/15 10:30:37;;;;;;;9.90;4.90;;;;;;;3.27;48.97;96237.09;4988550;28;20404;-71
2021/04/15 10:33:32;;;;;;;5.95;4.40;;;;;;;3.37;45.69;96235.88;4988587;28;20081;-71
2021/04/15 10:36:12;;;;;;;7.03;4.00;;;;;;;3.60;46.81;96230.97;4984003;28;20109;-71
2021/04/15 10:38:55;;;;;;;6.88;4.50;;;;;;;3.81;48.32;96223.88;4985371;28;20045;-68
2021/04/15 10:41:39;;;;;;;6.85;4.32;;;;;;;4.61;44.21;96225.94;4989443;28;20038;-67
2021/04/15 10:44:14;;;;;;;6.75;4.00;;;;;;;4.95;43.79;96210.78;4989857;28;20439;-68
2021/04/15 10:46:57;;;;;;;6.50;4.68;;;;;;;4.97;42.70;96213.97;4988648;28;20045;-68
2021/04/15 10:49:41;;;;;;;9.40;4.72;;;;;;;5.01;43.53;96214.31;4990035;28;20069;-68
2021/04/15 10:52:21;;;;;;;9.13;5.75;;;;;;;4.51;50.46;96209.97;4990454;28;20050;-66
2021/04/15 10:54:47;;;;;;;10.43;6.25;;;;;;;4.62;50.25;96217.09;4990702;28;20051;-66
2021/04/15 10:57:42;;;;;;;10.07;5.88;;;;;;;4.98;51.88;96220.78;4990659;28;20526;-66
2021/04/15 11:00:30;;;;;;;13.90;5.72;;;;;;;4.91;50.61;96225.25;4967588;28;20519;-67
2021/04/15 11:03:10;;;;;;;9.15;5.63;;;;;;;3.91;53.37;96226.81;4989154;28;20523;-69
2021/04/15 11:05:41;;;;;;;14.35;6.30;;;;;;;3.18;56.53;96225.31;4991217;28;20043;-71
2021/04/15 11:08:16;;;;;;;8.52;5.82;;;;;;;2.97;56.03;96223.75;4989910;28;20050;-67
2021/04/15 11:10:42;;;;;;;8.10;5.25;;;;;;;3.00;60.01;96230.34;4991855;28;20050;-66
2021/04/15 11:13:18;;;;;;;8.95;5.28;;;;;;;3.01;58.54;96231.97;4987467;28;20080;-67
2021/04/15 11:15:47;;;;;;;10.52;5.05;;;;;;;3.06;57.91;96225.16;4990874;28;20574;-68
2021/04/15 11:18:23;;;;;;;7.93;5.75;;;;;;;2.75;59.21;96223.19;4987808;28;20038;-68
2021/04/15 11:20:50;;;;;;;7.90;5.28;;;;;;;2.70;59.45;96220.41;4989171;28;20427;-67
2021/04/15 11:23:15;;;;;;;7.85;5.07;;;;;;;2.80;58.89;96223.38;4992543;28;20054;-66
2021/04/15 11:25:52;;;;;;;8.85;5.28;;;;;;;3.24;58.80;96216.69;4990026;28;20050;-66
2021/04/15 11:28:20;;;;;;;9.20;5.60;;;;;;;3.63;57.21;96220.16;4990402;28;20050;-67
2021/04/15 11:30:52;;;;;;;7.60;4.95;;;;;;;3.61;56.04;96214.34;4987752;28;20054;-66
2021/04/15 11:33:36;;;;;;;8.00;5.00;;;;;;;3.78;56.10;96211.28;4988648;28;20694;-67
2021/04/15 11:36:05;;;;;;;5.80;4.25;;;;;;;4.61;54.46;96210.31;4988266;28;20467;-66
2021/04/15 11:38:31;;;;;;;8.00;4.78;;;;;;;4.76;49.94;96206.56;4988906;28;20069;-71
2021/04/15 11:40:57;;;;;;;8.82;4.93;;;;;;;4.59;52.01;96212.31;4992100;28;20104;-71
2021/04/15 11:43:30;;;;;;;9.60;4.95;;;;;;;4.79;50.20;96203.53;4990743;28;20046;-71
2021/04/15 11:46:16;;;;;;;8.17;4.60;;;;;;;4.64;48.06;96204.66;4989630;28;20046;-71
2021/04/15 11:48:41;;;;;;;7.05;4.68;;;;;;;5.06;48.21;96205.84;4984927;28;20503;-71
2021/04/15 11:51:12;;;;;;;6.97;4.65;;;;;;;4.65;46.40;96201.00;4988302;28;20057;-71
2021/04/15 11:53:40;;;;;;;6.43;4.30;;;;;;;4.39;46.60;96201.25;4989280;28;20043;-71
2021/04/15 11:56:15;;;;;;;6.38;4.10;;;;;;;4.77;47.59;96208.13;4984660;28;20039;-71
2021/04/15 11:58:40;;;;;;;7.93;4.18;;;;;;;4.59;44.91;96196.66;4989482;28;20042;-73
2021/04/15 12:01:06;;;;;;;5.55;3.70;;;;;;;4.52;43.98;96203.75;4994638;28;20437;-73
2021/04/15 12:03:34;;;;;;;8.82;4.25;;;;;;;4.35;45.19;96195.66;4989727;28;20644;-72
2021/04/15 12:06:10;;;;;;;8.05;4.15;;;;;;;4.10;41.67;96198.25;4988453;28;20045;-71
2021/04/15 12:08:39;;;;;;;6.25;4.00;;;;;;;4.30;44.04;96198.13;4988419;28;20038;-72
2021/04/15 12:11:27;;;;;;;5.53;3.72;;;;;;;4.25;43.24;96196.16;4987361;28;20046;-72
2021/04/15 12:14:03;;;;;;;7.55;4.10;;;;;;;4.07;41.29;96193.47;4990305;28;20046;-72
2021/04/15 12:16:43;;;;;;;8.20;4.20;;;;;;;4.22;42.37;96186.13;4987458;28;20631;-74
2021/04/15 12:19:18;;;;;;;5.72;3.58;;;;;;;5.06;45.28;96195.41;4989182;28;20443;-71
2021/04/15 12:22:09;;;;;;;;;;;;;;;5.31;42.73;96198.75;4989184;28;20042;-72